createdAt,value
2019-04-03T00:01:37.895Z,2.00
2019-04-03T00:04:07.455Z,2.20
2019-04-03T00:06:37.077Z,2.00
2019-04-03T00:09:08.668Z,2.35
2019-04-03T00:11:39.903Z,1.82
2019-04-03T00:14:12.183Z,1.72
2019-04-03T00:16:41.269Z,1.80
2019-04-03T00:19:44.211Z,1.47
2019-04-03T00:25:16.512Z,1.50
2019-04-03T00:27:46.226Z,1.50
2019-04-03T00:30:16.335Z,1.45
2019-04-03T00:32:46.023Z,1.60
2019-04-03T00:35:15.942Z,1.40
2019-04-03T00:37:45.658Z,1.30
2019-04-03T00:40:15.744Z,1.62
2019-04-03T00:42:45.348Z,1.70
2019-04-03T00:45:15.156Z,1.57
2019-04-03T00:47:44.741Z,1.70
2019-04-03T00:50:14.500Z,1.80
2019-04-03T00:52:44.340Z,2.00
2019-04-03T00:55:14.035Z,1.55
2019-04-03T00:57:43.872Z,1.60
2019-04-03T01:00:17.475Z,1.90
2019-04-03T01:02:47.182Z,1.60
2019-04-03T01:05:16.728Z,2.10
2019-04-03T01:07:46.346Z,2.02
2019-04-03T01:10:16.221Z,2.05
2019-04-03T01:12:46.147Z,1.90
2019-04-03T01:15:16.221Z,2.08
2019-04-03T01:17:45.893Z,2.37
2019-04-03T01:20:15.802Z,2.12
2019-04-03T01:22:45.404Z,1.98
2019-04-03T01:25:15.015Z,2.20
2019-04-03T01:27:44.689Z,2.27
2019-04-03T01:30:14.682Z,2.12
2019-04-03T01:32:46.063Z,1.82
2019-04-03T01:35:17.385Z,2.05
2019-04-03T01:37:47.864Z,2.25
2019-04-03T01:40:20.175Z,2.00
2019-04-03T01:42:52.450Z,1.90
2019-04-03T01:45:21.344Z,2.27
2019-04-03T01:47:50.971Z,2.02
2019-04-03T01:50:20.592Z,2.40
2019-04-03T01:52:50.468Z,2.22
2019-04-03T01:55:20.125Z,2.00
2019-04-03T01:57:49.709Z,2.12
2019-04-03T02:00:19.532Z,1.87
2019-04-03T02:02:49.199Z,2.20
2019-04-03T02:05:18.792Z,2.02
2019-04-03T02:07:48.406Z,2.08
2019-04-03T02:10:21.978Z,2.58
2019-04-03T02:12:51.775Z,2.40
2019-04-03T02:15:22.179Z,2.40
2019-04-03T02:17:54.222Z,2.90
2019-04-03T02:20:24.615Z,2.77
2019-04-03T02:22:54.841Z,2.77
2019-04-03T02:25:24.666Z,4.17
2019-04-03T02:27:54.498Z,3.62
2019-04-03T02:30:24.791Z,4.72
2019-04-03T02:32:56.635Z,4.75
2019-04-03T02:35:25.833Z,5.00
2019-04-03T02:37:55.605Z,5.55
2019-04-03T02:40:25.179Z,4.95
2019-04-03T02:42:57.376Z,5.53
2019-04-03T02:45:26.970Z,6.67
2019-04-03T02:47:56.902Z,5.75
2019-04-03T02:50:26.991Z,6.60
2019-04-03T02:52:58.894Z,7.40
2019-04-03T02:55:28.455Z,7.42
2019-04-03T02:57:58.519Z,7.90
2019-04-03T03:00:31.616Z,7.70
2019-04-03T03:02:59.405Z,6.70
2019-04-03T03:05:29.235Z,7.95
2019-04-03T03:07:59.010Z,8.45
2019-04-03T03:10:31.719Z,9.28
2019-04-03T03:13:02.388Z,9.40
2019-04-03T03:15:32.905Z,10.08
2019-04-03T03:18:02.834Z,9.83
2019-04-03T03:20:33.560Z,9.60
2019-04-03T03:23:03.573Z,10.28
2019-04-03T03:25:34.411Z,10.03
2019-04-03T03:28:04.346Z,9.88
2019-04-03T03:30:44.298Z,10.70
2019-04-03T03:33:33.049Z,10.70
2019-04-03T03:35:43.765Z,11.93
2019-04-03T03:38:11.768Z,10.93
2019-04-03T03:40:43.078Z,11.25
2019-04-03T03:43:12.822Z,10.82
2019-04-03T03:45:42.853Z,11.08
2019-04-03T03:48:12.986Z,10.63
2019-04-03T03:50:43.881Z,11.05
2019-04-03T03:53:13.631Z,11.43
2019-04-03T03:55:43.656Z,11.18
2019-04-03T03:58:14.149Z,11.73
2019-04-03T04:00:44.684Z,11.63
2019-04-03T04:03:14.936Z,11.12
2019-04-03T04:05:44.888Z,11.15
2019-04-03T04:08:15.374Z,12.63
2019-04-03T04:10:45.922Z,11.57
2019-04-03T04:13:17.022Z,11.50
2019-04-03T04:15:47.070Z,11.73
2019-04-03T04:18:17.355Z,10.98
2019-04-03T04:20:47.307Z,11.63
2019-04-03T04:23:17.817Z,10.63
2019-04-03T04:25:47.787Z,9.65
2019-04-03T04:28:18.704Z,9.03
2019-04-03T04:30:49.996Z,8.95
2019-04-03T04:33:19.580Z,9.63
2019-04-03T04:35:51.316Z,9.75
2019-04-03T04:38:20.910Z,9.83
2019-04-03T04:40:50.532Z,9.68
2019-04-03T04:43:20.196Z,10.13
2019-04-03T04:45:49.819Z,8.93
2019-04-03T04:48:20.758Z,8.68
2019-04-03T04:50:50.893Z,9.63
2019-04-03T04:53:20.514Z,10.03
2019-04-03T04:55:50.099Z,9.08
2019-04-03T04:58:19.688Z,9.05
2019-04-03T05:00:51.670Z,10.65
2019-04-03T05:03:21.863Z,8.73
2019-04-03T05:05:51.918Z,10.03
2019-04-03T05:08:21.567Z,9.15
2019-04-03T05:10:51.156Z,10.15
2019-04-03T05:13:20.753Z,8.73
2019-04-03T05:15:53.187Z,8.35
2019-04-03T05:18:21.795Z,10.05
2019-04-03T05:20:51.447Z,9.53
2019-04-03T05:23:21.235Z,11.20
2019-04-03T05:25:50.833Z,10.58
2019-04-03T05:28:20.513Z,10.35
2019-04-03T05:30:50.108Z,9.23
2019-04-03T05:33:19.728Z,9.78
2019-04-03T05:35:49.293Z,10.38
2019-04-03T05:38:21.829Z,10.13
2019-04-03T05:40:50.648Z,10.95
2019-04-03T05:43:20.320Z,10.18
2019-04-03T05:45:52.591Z,10.70
2019-04-03T05:48:24.360Z,10.90
2019-04-03T05:50:54.176Z,10.95
2019-04-03T05:53:23.852Z,11.45
2019-04-03T05:55:53.531Z,10.80
2019-04-03T05:58:23.180Z,10.25
2019-04-03T06:01:03.529Z,10.53
2019-04-03T06:03:37.522Z,10.10
2019-04-03T06:05:57.806Z,8.88
2019-04-03T06:08:27.313Z,9.53
2019-04-03T06:10:56.867Z,9.75
2019-04-03T06:13:26.512Z,9.08
2019-04-03T06:15:56.166Z,8.45
2019-04-03T06:18:26.879Z,8.40
2019-04-03T06:20:56.541Z,8.50
2019-04-03T06:23:26.395Z,8.68
2019-04-03T06:25:56.133Z,8.33
2019-04-03T06:28:25.673Z,7.45
2019-04-03T06:30:56.599Z,8.05
2019-04-03T06:33:26.515Z,8.03
2019-04-03T06:35:56.587Z,8.43
2019-04-03T06:38:26.929Z,8.55
2019-04-03T06:41:00.447Z,8.28
2019-04-03T06:43:30.754Z,8.18
2019-04-03T06:46:00.947Z,7.85
2019-04-03T06:48:34.600Z,8.40
2019-04-03T06:51:09.313Z,7.10
2019-04-03T06:53:39.130Z,7.37
2019-04-03T06:56:09.805Z,7.22
2019-04-03T06:58:40.239Z,8.18
2019-04-03T07:01:09.971Z,7.15
2019-04-03T07:03:39.574Z,7.53
2019-04-03T07:06:09.164Z,8.18
2019-04-03T07:08:40.696Z,8.50
2019-04-03T07:11:22.362Z,7.35
2019-04-03T07:13:41.971Z,7.33
2019-04-03T07:16:11.689Z,6.95
2019-04-03T07:18:41.272Z,7.28
2019-04-03T07:21:10.929Z,6.65
2019-04-03T07:23:40.510Z,6.55
2019-04-03T07:26:11.260Z,6.58
2019-04-03T07:28:42.289Z,7.40
2019-04-03T07:31:12.076Z,6.40
2019-04-03T07:33:41.844Z,7.35
2019-04-03T07:36:11.742Z,6.70
2019-04-03T07:38:41.862Z,7.45
2019-04-03T07:41:11.532Z,6.72
2019-04-03T07:43:41.186Z,6.75
2019-04-03T07:46:10.795Z,6.92
2019-04-03T07:48:40.498Z,7.60
2019-04-03T07:51:12.463Z,5.58
2019-04-03T07:53:41.802Z,6.67
2019-04-03T07:56:11.790Z,6.37
2019-04-03T07:58:41.383Z,5.47
2019-04-03T08:01:11.255Z,6.83
2019-04-03T08:03:40.855Z,6.00
2019-04-03T08:06:10.526Z,5.15
2019-04-03T08:08:40.373Z,5.53
2019-04-03T08:11:10.242Z,5.95
2019-04-03T08:13:39.873Z,5.58
2019-04-03T08:16:09.480Z,6.37
2019-04-03T08:18:39.501Z,5.65
2019-04-03T08:21:09.430Z,6.20
2019-04-03T08:23:39.100Z,5.95
2019-04-03T08:26:11.410Z,6.37
2019-04-03T08:28:40.184Z,6.20
2019-04-03T08:31:11.547Z,5.85
2019-04-03T08:33:41.120Z,6.42
2019-04-03T08:36:22.829Z,6.45
2019-04-03T08:38:43.997Z,6.22
2019-04-03T08:41:13.742Z,5.67
2019-04-03T08:43:43.442Z,6.62
2019-04-03T08:46:13.111Z,6.80
2019-04-03T08:48:43.006Z,7.10
2019-04-03T08:51:12.596Z,7.87
2019-04-03T08:53:42.482Z,8.78
2019-04-03T08:56:12.707Z,13.80
2019-04-03T08:58:43.092Z,17.23
2019-04-03T09:01:13.711Z,15.58
2019-04-03T09:03:43.910Z,14.28
2019-04-03T09:06:14.674Z,15.68
2019-04-03T09:08:44.309Z,15.38
2019-04-03T09:11:14.056Z,15.03
2019-04-03T09:13:44.052Z,14.53
2019-04-03T09:16:14.919Z,13.98
2019-04-03T09:18:44.578Z,13.88
2019-04-03T09:21:15.109Z,14.30
2019-04-03T09:23:45.610Z,14.10
2019-04-03T09:26:15.454Z,14.45
2019-04-03T09:28:45.432Z,14.07
2019-04-03T09:31:15.026Z,12.33
2019-04-03T09:33:45.028Z,13.10
2019-04-03T09:36:14.660Z,13.83
2019-04-03T09:38:44.235Z,12.78
2019-04-03T09:41:13.843Z,12.75
2019-04-03T09:43:43.471Z,12.58
2019-04-03T09:46:13.409Z,11.88
2019-04-03T09:48:43.458Z,10.48
2019-04-03T09:51:13.147Z,9.48
2019-04-03T09:53:42.740Z,7.83
2019-04-03T09:56:12.633Z,8.38
2019-04-03T09:58:42.314Z,8.43
2019-04-03T10:01:15.719Z,7.42
2019-04-03T10:03:43.602Z,7.45
2019-04-03T10:06:13.211Z,7.87
2019-04-03T10:08:42.822Z,7.22
2019-04-03T10:11:14.898Z,6.67
2019-04-03T10:13:43.963Z,6.83
2019-04-03T10:16:15.981Z,6.92
2019-04-03T10:18:44.979Z,5.45
2019-04-03T10:21:14.635Z,5.37
2019-04-03T10:23:44.525Z,3.62
2019-04-03T10:26:14.244Z,4.03
2019-04-03T10:28:46.888Z,4.00
2019-04-03T10:31:15.225Z,2.72
2019-04-03T10:33:45.036Z,3.08
2019-04-03T10:36:17.520Z,3.55
2019-04-03T10:38:48.307Z,3.33
2019-04-03T10:41:17.647Z,3.98
2019-04-03T10:43:47.265Z,4.20
2019-04-03T10:46:18.591Z,4.45
2019-04-03T10:48:48.319Z,4.95
2019-04-03T10:51:18.336Z,5.08
2019-04-03T10:53:50.388Z,5.53
2019-04-03T10:56:19.928Z,6.10
2019-04-03T10:58:50.874Z,5.60
2019-04-03T11:01:20.773Z,6.10
2019-04-03T11:03:50.443Z,5.95
2019-04-03T11:06:20.163Z,5.33
2019-04-03T11:08:49.922Z,4.90
2019-04-03T11:11:19.611Z,4.83
2019-04-03T11:13:49.744Z,5.42
2019-04-03T11:16:19.327Z,4.83
2019-04-03T11:18:58.537Z,5.47
2019-04-03T11:21:20.590Z,5.80
2019-04-03T11:23:50.332Z,4.80
2019-04-03T11:26:23.661Z,5.05
2019-04-03T11:28:51.492Z,4.95
2019-04-03T11:31:27.133Z,4.72
2019-04-03T11:33:52.527Z,3.85
2019-04-03T11:36:23.277Z,3.52
2019-04-03T11:38:53.491Z,3.35
2019-04-03T11:41:24.376Z,2.65
2019-04-03T11:43:54.252Z,3.52
2019-04-03T11:46:24.164Z,2.65
2019-04-03T11:48:54.268Z,2.72
2019-04-03T11:51:23.890Z,2.80
2019-04-03T11:53:53.499Z,2.98
2019-04-03T11:56:23.181Z,2.85
2019-04-03T11:58:53.486Z,2.83
2019-04-03T12:01:23.512Z,1.92
2019-04-03T12:03:53.647Z,1.80
2019-04-03T12:06:23.519Z,1.50
2019-04-03T12:08:53.681Z,1.60
2019-04-03T12:11:23.870Z,1.40
2019-04-03T12:13:53.965Z,1.52
2019-04-03T12:16:25.910Z,1.15
2019-04-03T12:18:55.494Z,1.02
2019-04-03T12:21:25.410Z,1.30
2019-04-03T12:23:57.737Z,1.70
2019-04-03T12:26:26.971Z,1.77
2019-04-03T12:28:57.171Z,1.65
2019-04-03T12:31:27.196Z,1.50
2019-04-03T12:34:01.069Z,1.40
2019-04-03T12:36:28.352Z,1.02
2019-04-03T12:38:58.547Z,1.00
2019-04-03T12:41:28.808Z,1.10
2019-04-03T12:43:59.466Z,1.10
2019-04-03T12:46:40.879Z,1.10
2019-04-03T12:49:09.849Z,1.27
2019-04-03T12:51:39.559Z,1.07
2019-04-03T12:54:09.271Z,1.10
2019-04-03T12:56:39.171Z,1.02
2019-04-03T12:59:09.492Z,1.20
2019-04-03T13:01:39.906Z,1.27
2019-04-03T13:04:09.805Z,1.12
2019-04-03T13:06:41.897Z,1.45
2019-04-03T13:09:12.361Z,1.12
2019-04-03T13:11:41.964Z,1.20
2019-04-03T13:14:22.559Z,1.05
2019-04-03T13:16:46.278Z,1.50
2019-04-03T13:19:16.023Z,1.10
2019-04-03T13:21:46.088Z,1.35
2019-04-03T13:24:17.484Z,1.40
2019-04-03T13:26:47.232Z,1.50
2019-04-03T13:29:16.834Z,1.37
2019-04-03T13:31:47.143Z,1.30
2019-04-03T13:34:17.606Z,1.35
2019-04-03T13:36:50.231Z,1.37
2019-04-03T13:39:18.708Z,1.37
2019-04-03T13:41:48.533Z,2.02
2019-04-03T13:44:18.124Z,1.45
2019-04-03T13:46:48.166Z,1.40
2019-04-03T13:49:18.637Z,1.30
2019-04-03T13:51:48.979Z,1.25
2019-04-03T13:54:18.593Z,1.57
2019-04-03T13:56:48.183Z,1.57
2019-04-03T13:59:17.847Z,1.70
2019-04-03T14:01:47.434Z,1.55
2019-04-03T14:04:17.303Z,1.55
2019-04-03T14:06:47.818Z,1.40
2019-04-03T14:09:17.709Z,1.57
2019-04-03T14:11:47.378Z,1.40
2019-04-03T14:14:17.000Z,1.32
2019-04-03T14:16:46.719Z,1.27
2019-04-03T14:19:16.280Z,1.70
2019-04-03T14:21:46.243Z,1.90
2019-04-03T14:24:16.143Z,2.12
2019-04-03T14:26:46.554Z,1.22
2019-04-03T14:29:16.869Z,1.30
2019-04-03T14:31:48.943Z,1.42
2019-04-03T14:34:17.864Z,1.30
2019-04-03T14:36:47.932Z,1.37
2019-04-03T14:39:19.347Z,1.32
2019-04-03T14:41:48.946Z,1.42
2019-04-03T14:44:18.607Z,1.55
2019-04-03T14:46:50.623Z,1.72
2019-04-03T14:49:19.928Z,1.60
2019-04-03T14:51:49.508Z,1.47
2019-04-03T14:54:19.117Z,1.82
2019-04-03T14:56:49.099Z,1.67
2019-04-03T14:59:19.207Z,1.70
2019-04-03T15:01:50.714Z,1.92
2019-04-03T15:04:20.218Z,2.10
2019-04-03T15:07:01.483Z,2.10
2019-04-03T15:09:21.262Z,2.20
2019-04-03T15:11:51.262Z,2.00
2019-04-03T15:14:22.192Z,1.77
2019-04-03T15:16:52.285Z,1.50
2019-04-03T15:19:21.969Z,1.50
2019-04-03T15:21:51.835Z,1.30
2019-04-03T15:24:21.562Z,1.42
2019-04-03T15:26:53.504Z,1.27
2019-04-03T15:29:23.029Z,1.25
2019-04-03T15:31:52.679Z,1.40
2019-04-03T15:34:22.296Z,1.50
2019-04-03T15:36:53.590Z,1.87
2019-04-03T15:39:23.250Z,1.47
2019-04-03T15:41:53.144Z,1.77
2019-04-03T15:44:22.781Z,1.70
2019-04-03T15:46:52.827Z,2.40
2019-04-03T15:49:25.573Z,1.75
2019-04-03T15:51:53.722Z,1.85
2019-04-03T15:54:25.856Z,1.92
2019-04-03T15:56:54.671Z,2.05
2019-04-03T15:59:24.653Z,1.75
2019-04-03T16:01:54.767Z,1.95
2019-04-03T16:04:26.765Z,1.92
2019-04-03T16:06:56.482Z,2.00
2019-04-03T16:09:26.180Z,1.95
2019-04-03T16:11:56.204Z,2.27
2019-04-03T16:14:28.180Z,2.30
2019-04-03T16:16:57.188Z,2.10
2019-04-03T16:19:27.079Z,2.05
2019-04-03T16:21:58.167Z,2.20
2019-04-03T16:24:28.024Z,2.25
2019-04-03T16:26:58.383Z,2.50
2019-04-03T16:29:30.217Z,2.22
2019-04-03T16:31:59.554Z,2.47
2019-04-03T16:34:29.109Z,2.50
2019-04-03T16:36:58.798Z,2.27
2019-04-03T16:39:31.804Z,2.20
2019-04-03T16:41:59.799Z,2.10
2019-04-03T16:44:29.844Z,1.77
2019-04-03T16:46:59.482Z,1.75
2019-04-03T16:49:29.270Z,1.70
2019-04-03T16:51:59.028Z,1.62
2019-04-03T16:54:30.513Z,1.40
2019-04-03T16:57:03.352Z,1.50
2019-04-03T16:59:33.702Z,1.20
2019-04-03T17:02:03.501Z,1.10
2019-04-03T17:04:35.590Z,1.27
2019-04-03T17:07:04.651Z,1.20
2019-04-03T17:09:37.499Z,1.00
2019-04-03T17:12:05.720Z,1.20
2019-04-03T17:14:35.387Z,0.93
2019-04-03T17:17:06.915Z,1.30
2019-04-03T17:19:36.584Z,1.15
2019-04-03T17:22:07.542Z,0.80
2019-04-03T17:24:43.540Z,1.00
2019-04-03T17:27:09.257Z,1.12
2019-04-03T17:29:38.899Z,0.90
2019-04-03T17:32:09.562Z,1.40
2019-04-03T17:34:41.947Z,1.15
2019-04-03T17:37:11.254Z,1.20
2019-04-03T17:39:40.851Z,1.30
2019-04-03T17:42:10.568Z,1.25
2019-04-03T17:44:40.426Z,1.27
2019-04-03T17:47:10.031Z,1.30
2019-04-03T17:49:39.750Z,1.25
2019-04-03T17:52:09.336Z,1.37
2019-04-03T17:54:39.165Z,1.57
2019-04-03T17:57:08.972Z,1.75
2019-04-03T17:59:38.642Z,1.60
2019-04-03T18:02:08.669Z,2.15
2019-04-03T18:04:38.281Z,1.52
2019-04-03T18:07:07.906Z,1.55
2019-04-03T18:09:37.510Z,1.45
2019-04-03T18:12:07.105Z,1.82
2019-04-03T18:14:36.689Z,2.00
2019-04-03T18:17:06.584Z,2.20
2019-04-03T18:19:37.694Z,2.08
2019-04-03T18:22:10.982Z,1.92
2019-04-03T18:27:10.428Z,1.92
2019-04-03T18:29:40.022Z,2.08
2019-04-03T18:32:09.641Z,1.98
2019-04-03T18:34:39.256Z,2.40
2019-04-03T18:37:08.863Z,1.77
2019-04-03T18:39:40.281Z,1.98
2019-04-03T18:42:10.081Z,1.92
2019-04-03T18:44:39.669Z,1.98
2019-04-03T18:47:09.303Z,1.92
2019-04-03T18:49:38.982Z,1.80
2019-04-03T18:52:08.668Z,2.10
2019-04-03T18:54:38.376Z,2.05
2019-04-03T18:57:08.228Z,2.00
2019-04-03T18:59:38.095Z,2.33
2019-04-03T19:02:07.701Z,2.42
2019-04-03T19:04:38.193Z,2.45
2019-04-03T19:07:08.048Z,2.35
2019-04-03T19:09:37.659Z,2.50
2019-04-03T19:12:08.709Z,2.67
2019-04-03T19:14:38.586Z,2.52
2019-04-03T19:17:08.476Z,2.50
2019-04-03T19:19:38.075Z,2.10
2019-04-03T19:22:07.747Z,2.12
2019-04-03T19:24:37.594Z,1.70
2019-04-03T19:27:07.190Z,2.12
2019-04-03T19:29:36.910Z,1.70
2019-04-03T19:32:06.520Z,1.80
2019-04-03T19:34:36.419Z,1.80
2019-04-03T19:37:06.074Z,1.72
2019-04-03T19:39:37.567Z,1.50
2019-04-03T19:42:07.023Z,1.62
2019-04-03T19:44:36.734Z,1.60
2019-04-03T19:47:06.370Z,1.57
2019-04-03T19:49:35.980Z,1.30
2019-04-03T19:52:06.054Z,1.50
2019-04-03T19:54:37.036Z,1.20
2019-04-03T19:57:06.743Z,1.05
2019-04-03T19:59:36.477Z,1.50
2019-04-03T20:02:09.329Z,1.27
2019-04-03T20:04:37.657Z,1.25
2019-04-03T20:07:07.479Z,1.15
2019-04-03T20:09:37.117Z,1.60
2019-04-03T20:12:07.619Z,1.20
2019-04-03T20:14:37.234Z,1.20
2019-04-03T20:17:07.035Z,1.55
2019-04-03T20:19:36.915Z,1.50
2019-04-03T20:22:07.091Z,1.60
2019-04-03T20:24:37.192Z,1.67
2019-04-03T20:27:06.801Z,1.50
2019-04-03T20:29:36.431Z,1.67
2019-04-03T20:32:07.038Z,1.80
2019-04-03T20:34:37.194Z,1.50
2019-04-03T20:37:06.857Z,1.30
2019-04-03T20:39:36.734Z,1.45
2019-04-03T20:42:08.080Z,2.05
2019-04-03T20:44:39.011Z,1.65
2019-04-03T20:47:08.894Z,1.65
2019-04-03T20:49:38.754Z,1.62
2019-04-03T20:52:10.659Z,1.55
2019-04-03T20:54:39.704Z,1.90
2019-04-03T20:57:09.346Z,1.60
2019-04-03T20:59:38.945Z,1.32
2019-04-03T21:02:09.001Z,1.85
2019-04-03T21:04:38.663Z,1.60
2019-04-03T21:07:08.322Z,1.55
2019-04-03T21:09:37.911Z,1.92
2019-04-03T21:12:07.508Z,1.80
2019-04-03T21:14:37.493Z,2.00
2019-04-03T21:17:07.108Z,1.52
2019-04-03T21:19:36.729Z,1.80
2019-04-03T21:22:06.357Z,2.17
2019-04-03T21:24:35.949Z,1.90
2019-04-03T21:27:06.887Z,2.10
2019-04-03T21:29:37.285Z,1.67
2019-04-03T21:32:07.008Z,1.95
2019-04-03T21:34:36.880Z,1.90
2019-04-03T21:37:09.231Z,1.77
2019-04-03T21:39:37.873Z,2.20
2019-04-03T21:42:08.509Z,2.40
2019-04-03T21:44:38.408Z,2.85
2019-04-03T21:47:07.997Z,2.83
2019-04-03T21:49:37.662Z,2.58
2019-04-03T21:52:07.270Z,2.98
2019-04-03T21:54:36.961Z,2.90
2019-04-03T21:57:06.934Z,2.90
2019-04-03T21:59:36.570Z,2.67
2019-04-03T22:02:06.347Z,2.92
2019-04-03T22:04:36.286Z,3.37
2019-04-03T22:07:06.093Z,3.85
2019-04-03T22:09:35.699Z,3.83
2019-04-03T22:12:05.894Z,4.08
2019-04-03T22:14:36.179Z,3.92
2019-04-03T22:17:05.850Z,4.80
2019-04-03T22:19:35.451Z,4.62
2019-04-03T22:22:05.134Z,4.55
2019-04-03T22:24:37.439Z,4.30
2019-04-03T22:27:06.542Z,4.72
2019-04-03T22:29:36.174Z,4.65
2019-04-03T22:32:05.761Z,4.28
2019-04-03T22:34:35.406Z,5.10
2019-04-03T22:37:05.087Z,4.50
2019-04-03T22:39:34.677Z,4.87
2019-04-03T22:42:04.589Z,4.95
2019-04-03T22:44:34.304Z,4.45
2019-04-03T22:47:04.158Z,4.70
2019-04-03T22:49:34.460Z,4.90
2019-04-03T22:52:04.508Z,5.47
2019-04-03T22:54:34.342Z,5.80
2019-04-03T22:57:03.918Z,6.92
2019-04-03T22:59:33.628Z,5.87
2019-04-03T23:02:03.465Z,6.28
2019-04-03T23:04:33.046Z,6.72
2019-04-03T23:07:02.659Z,6.80
2019-04-03T23:09:32.272Z,6.95
2019-04-03T23:12:03.088Z,6.70
2019-04-03T23:14:33.297Z,7.20
2019-04-03T23:17:02.902Z,6.90
2019-04-03T23:19:32.589Z,6.70
2019-04-03T23:22:02.344Z,7.85
2019-04-03T23:24:32.009Z,7.40
2019-04-03T23:27:02.693Z,7.15
2019-04-03T23:29:35.777Z,8.20
2019-04-03T23:32:04.593Z,7.42
2019-04-03T23:34:34.184Z,8.58
2019-04-03T23:37:04.060Z,8.10
2019-04-03T23:39:33.684Z,8.93
2019-04-03T23:42:06.583Z,8.90
2019-04-03T23:44:34.698Z,8.45
2019-04-03T23:47:04.453Z,9.25
2019-04-03T23:49:34.049Z,9.20
2019-04-03T23:52:03.664Z,9.83
2019-04-03T23:54:34.011Z,11.00
2019-04-03T23:57:04.145Z,10.68
2019-04-03T23:59:33.837Z,11.60
